sensor_id;sensor_type;location;lat;lon;timestamp;temperature;humidity
11599;DHT22;5855;48.840;9.188;2023-12-28T00:01:46;7.60;99.90
11599;DHT22;5855;48.840;9.188;2023-12-28T00:04:14;7.80;99.90
11599;DHT22;5855;48.840;9.188;2023-12-28T00:06:42;7.80;99.90
11599;DHT22;5855;48.840;9.188;2023-12-28T00:09:09;8.00;99.90
11599;DHT22;5855;48.840;9.188;2023-12-28T00:11:36;8.20;99.50
11599;DHT22;5855;48.840;9.188;2023-12-28T00:14:03;8.40;99.40
11599;DHT22;5855;48.840;9.188;2023-12-28T00:16:33;8.40;99.00
11599;DHT22;5855;48.840;9.188;2023-12-28T00:19:02;8.50;98.20
11599;DHT22;5855;48.840;9.188;2023-12-28T00:21:29;8.60;97.80
11599;DHT22;5855;48.840;9.188;2023-12-28T00:23:57;8.80;97.70
11599;DHT22;5855;48.840;9.188;2023-12-28T00:26:24;8.80;97.30
11599;DHT22;5855;48.840;9.188;2023-12-28T00:28:51;8.80;97.30
11599;DHT22;5855;48.840;9.188;2023-12-28T00:31:18;8.80;97.20
11599;DHT22;5855;48.840;9.188;2023-12-28T00:33:45;8.80;97.00
11599;DHT22;5855;48.840;9.188;2023-12-28T00:36:11;8.90;96.60
11599;DHT22;5855;48.840;9.188;2023-12-28T00:38:38;8.90;96.50
11599;DHT22;5855;48.840;9.188;2023-12-28T00:41:06;9.00;96.30
11599;DHT22;5855;48.840;9.188;2023-12-28T00:43:33;9.00;96.20
11599;DHT22;5855;48.840;9.188;2023-12-28T00:46:00;9.00;96.10
11599;DHT22;5855;48.840;9.188;2023-12-28T00:48:27;8.90;96.20
11599;DHT22;5855;48.840;9.188;2023-12-28T00:50:54;8.90;96.30
11599;DHT22;5855;48.840;9.188;2023-12-28T00:53:24;8.80;96.40
11599;DHT22;5855;48.840;9.188;2023-12-28T00:55:51;8.80;96.20
11599;DHT22;5855;48.840;9.188;2023-12-28T00:58:19;8.80;96.20
11599;DHT22;5855;48.840;9.188;2023-12-28T01:00:46;8.90;95.90
11599;DHT22;5855;48.840;9.188;2023-12-28T01:03:13;9.00;95.90
11599;DHT22;5855;48.840;9.188;2023-12-28T01:05:40;9.00;95.40
11599;DHT22;5855;48.840;9.188;2023-12-28T01:08:06;9.00;95.60
11599;DHT22;5855;48.840;9.188;2023-12-28T01:10:33;9.00;95.30
11599;DHT22;5855;48.840;9.188;2023-12-28T01:13:00;9.00;95.30
11599;DHT22;5855;48.840;9.188;2023-12-28T01:15:28;9.10;95.40
11599;DHT22;5855;48.840;9.188;2023-12-28T01:17:55;9.10;95.40
11599;DHT22;5855;48.840;9.188;2023-12-28T01:20:22;9.10;95.30
11599;DHT22;5855;48.840;9.188;2023-12-28T01:22:49;9.00;95.30
11599;DHT22;5855;48.840;9.188;2023-12-28T01:25:16;9.00;95.50
11599;DHT22;5855;48.840;9.188;2023-12-28T01:27:43;8.90;95.70
11599;DHT22;5855;48.840;9.188;2023-12-28T01:30:10;8.80;95.80
11599;DHT22;5855;48.840;9.188;2023-12-28T01:32:38;8.70;96.10
11599;DHT22;5855;48.840;9.188;2023-12-28T01:35:05;8.70;96.20
11599;DHT22;5855;48.840;9.188;2023-12-28T01:37:32;8.60;96.40
11599;DHT22;5855;48.840;9.188;2023-12-28T01:39:59;8.60;96.70
11599;DHT22;5855;48.840;9.188;2023-12-28T01:42:26;8.40;96.90
11599;DHT22;5855;48.840;9.188;2023-12-28T01:44:56;8.40;97.10
11599;DHT22;5855;48.840;9.188;2023-12-28T01:47:22;8.30;97.10
11599;DHT22;5855;48.840;9.188;2023-12-28T01:49:51;8.20;97.30
11599;DHT22;5855;48.840;9.188;2023-12-28T01:52:19;8.30;97.60
11599;DHT22;5855;48.840;9.188;2023-12-28T01:54:46;8.20;97.50
11599;DHT22;5855;48.840;9.188;2023-12-28T01:57:14;8.20;97.60
11599;DHT22;5855;48.840;9.188;2023-12-28T01:59:42;8.20;97.70
11599;DHT22;5855;48.840;9.188;2023-12-28T02:02:09;8.20;98.10
11599;DHT22;5855;48.840;9.188;2023-12-28T02:04:37;8.00;98.50
11599;DHT22;5855;48.840;9.188;2023-12-28T02:07:05;7.90;98.90
11599;DHT22;5855;48.840;9.188;2023-12-28T02:09:33;7.80;99.00
11599;DHT22;5855;48.840;9.188;2023-12-28T02:12:00;7.80;99.30
11599;DHT22;5855;48.840;9.188;2023-12-28T02:14:27;7.70;99.60
11599;DHT22;5855;48.840;9.188;2023-12-28T02:16:59;7.60;99.80
11599;DHT22;5855;48.840;9.188;2023-12-28T02:19:32;7.50;99.90
11599;DHT22;5855;48.840;9.188;2023-12-28T02:22:07;7.50;99.90
11599;DHT22;5855;48.840;9.188;2023-12-28T02:24:55;7.50;99.90
11599;DHT22;5855;48.840;9.188;2023-12-28T02:27:21;7.50;99.90
11599;DHT22;5855;48.840;9.188;2023-12-28T02:29:48;7.40;99.90
11599;DHT22;5855;48.840;9.188;2023-12-28T02:32:16;7.30;99.90
11599;DHT22;5855;48.840;9.188;2023-12-28T02:34:44;7.20;99.90
11599;DHT22;5855;48.840;9.188;2023-12-28T02:37:16;7.20;99.90
11599;DHT22;5855;48.840;9.188;2023-12-28T02:39:45;7.20;99.90
11599;DHT22;5855;48.840;9.188;2023-12-28T02:42:14;7.30;99.90
11599;DHT22;5855;48.840;9.188;2023-12-28T02:44:41;7.20;99.90
11599;DHT22;5855;48.840;9.188;2023-12-28T02:47:07;7.30;99.90
11599;DHT22;5855;48.840;9.188;2023-12-28T02:49:34;7.20;99.90
11599;DHT22;5855;48.840;9.188;2023-12-28T02:52:01;7.20;99.90
11599;DHT22;5855;48.840;9.188;2023-12-28T02:54:28;7.10;99.90
11599;DHT22;5855;48.840;9.188;2023-12-28T02:56:55;7.10;99.90
11599;DHT22;5855;48.840;9.188;2023-12-28T02:59:23;7.00;99.90
11599;DHT22;5855;48.840;9.188;2023-12-28T03:01:50;7.00;99.90
11599;DHT22;5855;48.840;9.188;2023-12-28T03:04:16;7.00;99.90
11599;DHT22;5855;48.840;9.188;2023-12-28T03:06:46;7.00;99.90
11599;DHT22;5855;48.840;9.188;2023-12-28T03:09:12;7.00;99.90
11599;DHT22;5855;48.840;9.188;2023-12-28T03:11:39;7.10;99.90
11599;DHT22;5855;48.840;9.188;2023-12-28T03:14:05;7.20;99.90
11599;DHT22;5855;48.840;9.188;2023-12-28T03:16:34;7.20;99.90
11599;DHT22;5855;48.840;9.188;2023-12-28T03:19:00;7.20;99.90
11599;DHT22;5855;48.840;9.188;2023-12-28T03:21:27;7.20;99.90
11599;DHT22;5855;48.840;9.188;2023-12-28T03:23:54;7.20;99.90
11599;DHT22;5855;48.840;9.188;2023-12-28T03:26:21;7.20;99.90
11599;DHT22;5855;48.840;9.188;2023-12-28T03:28:47;7.20;99.90
11599;DHT22;5855;48.840;9.188;2023-12-28T03:31:14;7.30;99.90
11599;DHT22;5855;48.840;9.188;2023-12-28T03:33:42;7.30;99.90
11599;DHT22;5855;48.840;9.188;2023-12-28T03:36:18;7.40;99.90
11599;DHT22;5855;48.840;9.188;2023-12-28T03:38:45;7.50;99.90
11599;DHT22;5855;48.840;9.188;2023-12-28T03:41:16;7.50;99.90
11599;DHT22;5855;48.840;9.188;2023-12-28T03:43:43;7.60;99.90
11599;DHT22;5855;48.840;9.188;2023-12-28T03:46:10;7.70;99.90
11599;DHT22;5855;48.840;9.188;2023-12-28T03:48:37;7.90;99.90
11599;DHT22;5855;48.840;9.188;2023-12-28T03:51:05;8.10;99.50
11599;DHT22;5855;48.840;9.188;2023-12-28T03:53:32;8.20;99.40
11599;DHT22;5855;48.840;9.188;2023-12-28T03:55:59;8.40;98.60
11599;DHT22;5855;48.840;9.188;2023-12-28T03:58:26;8.80;97.10
11599;DHT22;5855;48.840;9.188;2023-12-28T04:00:53;9.10;96.40
11599;DHT22;5855;48.840;9.188;2023-12-28T04:03:19;9.30;95.90
11599;DHT22;5855;48.840;9.188;2023-12-28T04:05:46;9.60;95.10
11599;DHT22;5855;48.840;9.188;2023-12-28T04:08:14;9.70;94.60
11599;DHT22;5855;48.840;9.188;2023-12-28T04:10:41;9.90;94.00
11599;DHT22;5855;48.840;9.188;2023-12-28T04:13:08;10.00;93.40
11599;DHT22;5855;48.840;9.188;2023-12-28T04:15:35;9.90;93.90
11599;DHT22;5855;48.840;9.188;2023-12-28T04:18:02;9.90;94.20
11599;DHT22;5855;48.840;9.188;2023-12-28T04:20:29;9.90;94.00
11599;DHT22;5855;48.840;9.188;2023-12-28T04:22:55;9.90;93.80
11599;DHT22;5855;48.840;9.188;2023-12-28T04:25:24;9.90;93.90
11599;DHT22;5855;48.840;9.188;2023-12-28T04:27:51;9.90;93.80
11599;DHT22;5855;48.840;9.188;2023-12-28T04:30:18;9.80;93.80
11599;DHT22;5855;48.840;9.188;2023-12-28T04:32:44;9.80;94.00
11599;DHT22;5855;48.840;9.188;2023-12-28T04:35:12;9.80;94.00
11599;DHT22;5855;48.840;9.188;2023-12-28T04:37:38;9.80;94.00
11599;DHT22;5855;48.840;9.188;2023-12-28T04:40:06;9.80;93.90
11599;DHT22;5855;48.840;9.188;2023-12-28T04:42:35;9.80;93.80
11599;DHT22;5855;48.840;9.188;2023-12-28T04:45:01;9.90;94.00
11599;DHT22;5855;48.840;9.188;2023-12-28T04:47:28;9.80;93.60
11599;DHT22;5855;48.840;9.188;2023-12-28T04:49:55;9.90;93.70
11599;DHT22;5855;48.840;9.188;2023-12-28T04:52:22;9.90;93.80
11599;DHT22;5855;48.840;9.188;2023-12-28T04:54:49;9.90;93.60
11599;DHT22;5855;48.840;9.188;2023-12-28T04:57:16;9.90;93.50
11599;DHT22;5855;48.840;9.188;2023-12-28T04:59:44;10.00;92.80
11599;DHT22;5855;48.840;9.188;2023-12-28T05:02:11;10.00;92.80
11599;DHT22;5855;48.840;9.188;2023-12-28T05:04:38;9.90;93.40
11599;DHT22;5855;48.840;9.188;2023-12-28T05:07:05;9.90;93.40
11599;DHT22;5855;48.840;9.188;2023-12-28T05:09:32;9.90;93.40
11599;DHT22;5855;48.840;9.188;2023-12-28T05:11:59;9.80;93.80
11599;DHT22;5855;48.840;9.188;2023-12-28T05:14:25;9.70;93.90
11599;DHT22;5855;48.840;9.188;2023-12-28T05:16:54;9.70;94.00
11599;DHT22;5855;48.840;9.188;2023-12-28T05:19:20;9.70;94.00
11599;DHT22;5855;48.840;9.188;2023-12-28T05:21:47;9.80;94.20
11599;DHT22;5855;48.840;9.188;2023-12-28T05:24:14;9.80;94.00
11599;DHT22;5855;48.840;9.188;2023-12-28T05:26:41;9.80;94.00
11599;DHT22;5855;48.840;9.188;2023-12-28T05:29:08;9.80;94.20
11599;DHT22;5855;48.840;9.188;2023-12-28T05:31:34;9.70;94.50
11599;DHT22;5855;48.840;9.188;2023-12-28T05:34:03;9.60;94.70
11599;DHT22;5855;48.840;9.188;2023-12-28T05:36:31;9.50;95.10
11599;DHT22;5855;48.840;9.188;2023-12-28T05:38:58;9.40;95.30
11599;DHT22;5855;48.840;9.188;2023-12-28T05:41:25;9.50;95.40
11599;DHT22;5855;48.840;9.188;2023-12-28T05:43:51;9.40;95.70
11599;DHT22;5855;48.840;9.188;2023-12-28T05:46:18;9.40;95.90
11599;DHT22;5855;48.840;9.188;2023-12-28T05:48:45;9.40;96.10
11599;DHT22;5855;48.840;9.188;2023-12-28T05:51:14;9.40;96.20
11599;DHT22;5855;48.840;9.188;2023-12-28T05:53:41;9.30;96.40
11599;DHT22;5855;48.840;9.188;2023-12-28T05:56:08;9.30;96.60
11599;DHT22;5855;48.840;9.188;2023-12-28T05:58:35;9.20;96.90
11599;DHT22;5855;48.840;9.188;2023-12-28T06:01:04;9.20;97.60
11599;DHT22;5855;48.840;9.188;2023-12-28T06:03:31;9.10;97.70
11599;DHT22;5855;48.840;9.188;2023-12-28T06:05:58;9.10;97.80
11599;DHT22;5855;48.840;9.188;2023-12-28T06:08:26;9.20;97.70
11599;DHT22;5855;48.840;9.188;2023-12-28T06:10:53;9.30;97.90
11599;DHT22;5855;48.840;9.188;2023-12-28T06:13:20;9.30;98.00
11599;DHT22;5855;48.840;9.188;2023-12-28T06:15:47;9.40;98.20
11599;DHT22;5855;48.840;9.188;2023-12-28T06:18:13;9.40;98.40
11599;DHT22;5855;48.840;9.188;2023-12-28T06:20:43;9.30;98.70
11599;DHT22;5855;48.840;9.188;2023-12-28T06:23:10;9.20;99.00
11599;DHT22;5855;48.840;9.188;2023-12-28T06:25:38;9.20;99.00
11599;DHT22;5855;48.840;9.188;2023-12-28T06:28:07;9.20;99.30
11599;DHT22;5855;48.840;9.188;2023-12-28T06:30:34;9.10;99.50
11599;DHT22;5855;48.840;9.188;2023-12-28T06:33:00;9.20;99.70
11599;DHT22;5855;48.840;9.188;2023-12-28T06:35:27;9.10;99.90
11599;DHT22;5855;48.840;9.188;2023-12-28T06:37:54;9.10;99.90
11599;DHT22;5855;48.840;9.188;2023-12-28T06:40:21;9.20;99.90
11599;DHT22;5855;48.840;9.188;2023-12-28T06:42:49;9.20;99.90
11599;DHT22;5855;48.840;9.188;2023-12-28T06:45:16;9.30;99.90
11599;DHT22;5855;48.840;9.188;2023-12-28T06:47:42;9.30;99.90
11599;DHT22;5855;48.840;9.188;2023-12-28T06:50:10;9.20;99.90
11599;DHT22;5855;48.840;9.188;2023-12-28T06:52:36;9.20;99.90
11599;DHT22;5855;48.840;9.188;2023-12-28T06:55:04;9.20;99.90
11599;DHT22;5855;48.840;9.188;2023-12-28T06:57:30;9.30;99.90
11599;DHT22;5855;48.840;9.188;2023-12-28T06:59:59;9.30;99.90
11599;DHT22;5855;48.840;9.188;2023-12-28T07:02:27;9.10;99.90
11599;DHT22;5855;48.840;9.188;2023-12-28T07:04:54;9.00;99.90
11599;DHT22;5855;48.840;9.188;2023-12-28T07:07:21;9.00;99.90
11599;DHT22;5855;48.840;9.188;2023-12-28T07:09:48;8.90;99.90
11599;DHT22;5855;48.840;9.188;2023-12-28T07:12:15;8.90;99.90
11599;DHT22;5855;48.840;9.188;2023-12-28T07:14:41;8.90;99.90
11599;DHT22;5855;48.840;9.188;2023-12-28T07:17:09;8.80;99.90
11599;DHT22;5855;48.840;9.188;2023-12-28T07:19:37;8.80;99.90
11599;DHT22;5855;48.840;9.188;2023-12-28T07:22:04;8.80;99.90
11599;DHT22;5855;48.840;9.188;2023-12-28T07:24:31;8.80;99.90
11599;DHT22;5855;48.840;9.188;2023-12-28T07:26:57;8.80;99.90
11599;DHT22;5855;48.840;9.188;2023-12-28T07:29:24;8.80;99.90
11599;DHT22;5855;48.840;9.188;2023-12-28T07:31:51;8.70;99.90
11599;DHT22;5855;48.840;9.188;2023-12-28T07:34:19;8.70;99.90
11599;DHT22;5855;48.840;9.188;2023-12-28T07:36:46;8.70;99.90
11599;DHT22;5855;48.840;9.188;2023-12-28T07:39:13;8.60;99.90
11599;DHT22;5855;48.840;9.188;2023-12-28T07:41:40;8.60;99.90
11599;DHT22;5855;48.840;9.188;2023-12-28T07:44:07;8.60;99.90
11599;DHT22;5855;48.840;9.188;2023-12-28T07:46:34;8.60;99.90
11599;DHT22;5855;48.840;9.188;2023-12-28T07:49:00;8.60;99.90
11599;DHT22;5855;48.840;9.188;2023-12-28T07:51:28;8.60;99.90
11599;DHT22;5855;48.840;9.188;2023-12-28T07:53:55;8.60;99.90
11599;DHT22;5855;48.840;9.188;2023-12-28T07:56:23;8.60;99.90
11599;DHT22;5855;48.840;9.188;2023-12-28T07:58:50;8.60;99.90
11599;DHT22;5855;48.840;9.188;2023-12-28T08:01:17;8.60;99.90
11599;DHT22;5855;48.840;9.188;2023-12-28T08:03:44;8.60;99.90
11599;DHT22;5855;48.840;9.188;2023-12-28T08:06:11;8.70;99.90
11599;DHT22;5855;48.840;9.188;2023-12-28T08:08:39;8.70;99.90
11599;DHT22;5855;48.840;9.188;2023-12-28T08:11:06;8.70;99.90
11599;DHT22;5855;48.840;9.188;2023-12-28T08:13:33;8.70;99.90
11599;DHT22;5855;48.840;9.188;2023-12-28T08:16:00;8.70;99.90
11599;DHT22;5855;48.840;9.188;2023-12-28T08:18:28;8.70;99.90
11599;DHT22;5855;48.840;9.188;2023-12-28T08:20:55;8.70;99.90
11599;DHT22;5855;48.840;9.188;2023-12-28T08:23:22;8.70;99.90
11599;DHT22;5855;48.840;9.188;2023-12-28T08:25:50;8.70;99.90
11599;DHT22;5855;48.840;9.188;2023-12-28T08:28:17;8.70;99.90
11599;DHT22;5855;48.840;9.188;2023-12-28T08:30:44;8.70;99.90
11599;DHT22;5855;48.840;9.188;2023-12-28T08:33:11;8.80;99.90
11599;DHT22;5855;48.840;9.188;2023-12-28T08:35:40;8.80;99.90
11599;DHT22;5855;48.840;9.188;2023-12-28T08:38:07;8.70;99.90
11599;DHT22;5855;48.840;9.188;2023-12-28T08:40:37;8.70;99.90
11599;DHT22;5855;48.840;9.188;2023-12-28T08:43:05;8.60;99.90
11599;DHT22;5855;48.840;9.188;2023-12-28T08:45:32;8.70;99.90
11599;DHT22;5855;48.840;9.188;2023-12-28T08:48:00;8.60;99.90
11599;DHT22;5855;48.840;9.188;2023-12-28T08:50:26;8.70;99.90
11599;DHT22;5855;48.840;9.188;2023-12-28T08:52:53;8.70;99.90
11599;DHT22;5855;48.840;9.188;2023-12-28T08:55:21;8.70;99.90
11599;DHT22;5855;48.840;9.188;2023-12-28T08:57:48;8.70;99.90
11599;DHT22;5855;48.840;9.188;2023-12-28T09:00:16;8.80;99.90
11599;DHT22;5855;48.840;9.188;2023-12-28T09:02:43;8.80;99.90
11599;DHT22;5855;48.840;9.188;2023-12-28T09:05:10;8.90;99.90
11599;DHT22;5855;48.840;9.188;2023-12-28T09:07:37;8.90;99.90
11599;DHT22;5855;48.840;9.188;2023-12-28T09:10:09;9.00;99.90
11599;DHT22;5855;48.840;9.188;2023-12-28T09:12:36;9.00;99.90
11599;DHT22;5855;48.840;9.188;2023-12-28T09:15:04;9.00;99.90
11599;DHT22;5855;48.840;9.188;2023-12-28T09:17:32;8.90;99.90
11599;DHT22;5855;48.840;9.188;2023-12-28T09:19:59;8.90;99.90
11599;DHT22;5855;48.840;9.188;2023-12-28T09:22:27;8.90;99.90
11599;DHT22;5855;48.840;9.188;2023-12-28T09:24:53;8.90;99.90
11599;DHT22;5855;48.840;9.188;2023-12-28T09:27:20;8.90;99.90
11599;DHT22;5855;48.840;9.188;2023-12-28T09:29:47;8.90;99.90
11599;DHT22;5855;48.840;9.188;2023-12-28T09:32:14;9.00;99.90
11599;DHT22;5855;48.840;9.188;2023-12-28T09:34:43;9.00;99.90
11599;DHT22;5855;48.840;9.188;2023-12-28T09:37:10;9.10;99.90
11599;DHT22;5855;48.840;9.188;2023-12-28T09:39:37;9.10;99.90
11599;DHT22;5855;48.840;9.188;2023-12-28T09:42:06;9.20;99.90
11599;DHT22;5855;48.840;9.188;2023-12-28T09:44:36;9.30;99.90
11599;DHT22;5855;48.840;9.188;2023-12-28T09:47:05;9.40;99.90
11599;DHT22;5855;48.840;9.188;2023-12-28T09:49:32;9.40;99.90
11599;DHT22;5855;48.840;9.188;2023-12-28T09:52:01;9.50;99.90
11599;DHT22;5855;48.840;9.188;2023-12-28T09:54:27;9.60;99.90
11599;DHT22;5855;48.840;9.188;2023-12-28T09:56:54;9.60;99.90
11599;DHT22;5855;48.840;9.188;2023-12-28T09:59:24;9.60;99.90
11599;DHT22;5855;48.840;9.188;2023-12-28T10:01:53;9.50;99.90
11599;DHT22;5855;48.840;9.188;2023-12-28T10:04:21;9.50;99.90
11599;DHT22;5855;48.840;9.188;2023-12-28T10:06:48;9.50;99.90
11599;DHT22;5855;48.840;9.188;2023-12-28T10:09:17;9.50;99.90
11599;DHT22;5855;48.840;9.188;2023-12-28T10:11:44;9.60;99.90
11599;DHT22;5855;48.840;9.188;2023-12-28T10:14:11;9.70;99.90
11599;DHT22;5855;48.840;9.188;2023-12-28T10:16:40;9.90;99.90
11599;DHT22;5855;48.840;9.188;2023-12-28T10:19:08;10.00;99.90
11599;DHT22;5855;48.840;9.188;2023-12-28T10:21:34;10.00;99.90
11599;DHT22;5855;48.840;9.188;2023-12-28T10:24:02;10.10;99.90
11599;DHT22;5855;48.840;9.188;2023-12-28T10:26:31;10.10;99.90
11599;DHT22;5855;48.840;9.188;2023-12-28T10:28:59;10.20;99.90
11599;DHT22;5855;48.840;9.188;2023-12-28T10:31:27;10.20;99.90
11599;DHT22;5855;48.840;9.188;2023-12-28T10:33:57;10.20;99.90
11599;DHT22;5855;48.840;9.188;2023-12-28T10:36:25;10.20;99.90
11599;DHT22;5855;48.840;9.188;2023-12-28T10:38:54;10.10;99.90
11599;DHT22;5855;48.840;9.188;2023-12-28T10:41:22;10.10;99.90
11599;DHT22;5855;48.840;9.188;2023-12-28T10:43:54;10.10;99.90
11599;DHT22;5855;48.840;9.188;2023-12-28T10:46:26;10.10;99.90
11599;DHT22;5855;48.840;9.188;2023-12-28T10:48:57;10.20;99.90
11599;DHT22;5855;48.840;9.188;2023-12-28T10:51:25;10.30;99.90
11599;DHT22;5855;48.840;9.188;2023-12-28T10:54:02;10.40;99.90
11599;DHT22;5855;48.840;9.188;2023-12-28T10:56:35;10.50;99.90
11599;DHT22;5855;48.840;9.188;2023-12-28T10:59:09;10.60;99.90
11599;DHT22;5855;48.840;9.188;2023-12-28T11:01:41;10.70;99.90
11599;DHT22;5855;48.840;9.188;2023-12-28T11:04:14;10.90;99.90
11599;DHT22;5855;48.840;9.188;2023-12-28T11:06:43;11.10;99.90
11599;DHT22;5855;48.840;9.188;2023-12-28T11:09:11;11.20;99.90
11599;DHT22;5855;48.840;9.188;2023-12-28T11:11:42;11.30;99.90
11599;DHT22;5855;48.840;9.188;2023-12-28T11:14:11;11.50;99.90
11599;DHT22;5855;48.840;9.188;2023-12-28T11:16:40;11.50;99.90
11599;DHT22;5855;48.840;9.188;2023-12-28T11:19:08;11.60;99.90
11599;DHT22;5855;48.840;9.188;2023-12-28T11:21:36;11.70;99.90
11599;DHT22;5855;48.840;9.188;2023-12-28T11:24:04;11.70;99.90
11599;DHT22;5855;48.840;9.188;2023-12-28T11:26:31;11.70;99.90
11599;DHT22;5855;48.840;9.188;2023-12-28T11:29:01;11.80;99.90
11599;DHT22;5855;48.840;9.188;2023-12-28T11:31:32;11.80;99.90
11599;DHT22;5855;48.840;9.188;2023-12-28T11:34:00;11.70;99.90
11599;DHT22;5855;48.840;9.188;2023-12-28T11:36:33;11.70;99.90
11599;DHT22;5855;48.840;9.188;2023-12-28T11:39:03;11.70;99.90
11599;DHT22;5855;48.840;9.188;2023-12-28T11:41:31;11.70;99.90
11599;DHT22;5855;48.840;9.188;2023-12-28T11:44:02;11.70;99.90
11599;DHT22;5855;48.840;9.188;2023-12-28T11:46:32;11.80;99.90
11599;DHT22;5855;48.840;9.188;2023-12-28T11:49:05;11.80;99.90
11599;DHT22;5855;48.840;9.188;2023-12-28T11:51:35;11.70;99.90
11599;DHT22;5855;48.840;9.188;2023-12-28T11:54:03;11.80;99.90
11599;DHT22;5855;48.840;9.188;2023-12-28T11:56:30;11.80;99.90
11599;DHT22;5855;48.840;9.188;2023-12-28T11:58:58;11.80;99.90
11599;DHT22;5855;48.840;9.188;2023-12-28T12:01:25;11.80;99.90
11599;DHT22;5855;48.840;9.188;2023-12-28T12:03:53;11.80;99.90
11599;DHT22;5855;48.840;9.188;2023-12-28T12:06:20;12.00;99.90
11599;DHT22;5855;48.840;9.188;2023-12-28T12:08:47;12.00;99.90
11599;DHT22;5855;48.840;9.188;2023-12-28T12:11:16;11.90;99.90
11599;DHT22;5855;48.840;9.188;2023-12-28T12:13:44;12.00;99.90
11599;DHT22;5855;48.840;9.188;2023-12-28T12:16:13;12.00;99.90
11599;DHT22;5855;48.840;9.188;2023-12-28T12:18:40;11.90;99.90
11599;DHT22;5855;48.840;9.188;2023-12-28T12:21:08;12.00;99.90
11599;DHT22;5855;48.840;9.188;2023-12-28T12:23:35;12.00;99.90
11599;DHT22;5855;48.840;9.188;2023-12-28T12:26:05;12.00;99.90
11599;DHT22;5855;48.840;9.188;2023-12-28T12:28:32;12.00;99.90
11599;DHT22;5855;48.840;9.188;2023-12-28T12:31:00;12.00;99.90
11599;DHT22;5855;48.840;9.188;2023-12-28T12:33:28;12.00;99.90
11599;DHT22;5855;48.840;9.188;2023-12-28T12:35:55;12.10;99.90
11599;DHT22;5855;48.840;9.188;2023-12-28T12:38:23;12.00;99.90
11599;DHT22;5855;48.840;9.188;2023-12-28T12:40:50;12.00;99.90
11599;DHT22;5855;48.840;9.188;2023-12-28T12:43:18;11.90;99.90
11599;DHT22;5855;48.840;9.188;2023-12-28T12:45:45;11.80;99.90
11599;DHT22;5855;48.840;9.188;2023-12-28T12:48:13;11.80;99.90
11599;DHT22;5855;48.840;9.188;2023-12-28T12:50:39;11.70;99.90
11599;DHT22;5855;48.840;9.188;2023-12-28T12:53:06;11.70;99.90
11599;DHT22;5855;48.840;9.188;2023-12-28T12:55:36;11.70;99.90
11599;DHT22;5855;48.840;9.188;2023-12-28T12:58:04;11.60;99.90
11599;DHT22;5855;48.840;9.188;2023-12-28T13:00:32;11.70;99.90
11599;DHT22;5855;48.840;9.188;2023-12-28T13:03:01;11.60;99.90
11599;DHT22;5855;48.840;9.188;2023-12-28T13:05:28;11.70;99.90
11599;DHT22;5855;48.840;9.188;2023-12-28T13:07:55;11.70;99.90
11599;DHT22;5855;48.840;9.188;2023-12-28T13:10:22;11.60;99.90
11599;DHT22;5855;48.840;9.188;2023-12-28T13:12:51;11.70;99.90
11599;DHT22;5855;48.840;9.188;2023-12-28T13:15:18;11.80;99.90
11599;DHT22;5855;48.840;9.188;2023-12-28T13:17:45;11.80;99.90
11599;DHT22;5855;48.840;9.188;2023-12-28T13:20:12;11.80;99.90
11599;DHT22;5855;48.840;9.188;2023-12-28T13:22:39;11.80;99.90
11599;DHT22;5855;48.840;9.188;2023-12-28T13:25:06;11.80;99.90
11599;DHT22;5855;48.840;9.188;2023-12-28T13:27:33;11.80;99.90
11599;DHT22;5855;48.840;9.188;2023-12-28T13:30:01;11.70;99.90
11599;DHT22;5855;48.840;9.188;2023-12-28T13:32:28;11.70;99.90
11599;DHT22;5855;48.840;9.188;2023-12-28T13:34:55;11.70;99.90
11599;DHT22;5855;48.840;9.188;2023-12-28T13:37:22;11.70;99.90
11599;DHT22;5855;48.840;9.188;2023-12-28T13:39:48;11.60;99.90
11599;DHT22;5855;48.840;9.188;2023-12-28T13:42:15;11.60;99.90
11599;DHT22;5855;48.840;9.188;2023-12-28T13:44:42;11.70;99.90
11599;DHT22;5855;48.840;9.188;2023-12-28T13:47:10;11.70;99.90
11599;DHT22;5855;48.840;9.188;2023-12-28T13:49:37;11.70;99.90
11599;DHT22;5855;48.840;9.188;2023-12-28T13:52:04;11.70;99.90
11599;DHT22;5855;48.840;9.188;2023-12-28T13:54:31;11.60;99.90
11599;DHT22;5855;48.840;9.188;2023-12-28T13:56:58;11.50;99.90
11599;DHT22;5855;48.840;9.188;2023-12-28T13:59:26;11.60;99.90
11599;DHT22;5855;48.840;9.188;2023-12-28T14:01:53;11.60;99.90
11599;DHT22;5855;48.840;9.188;2023-12-28T14:04:21;11.70;99.90
11599;DHT22;5855;48.840;9.188;2023-12-28T14:06:48;11.60;99.90
11599;DHT22;5855;48.840;9.188;2023-12-28T14:09:14;11.60;99.90
11599;DHT22;5855;48.840;9.188;2023-12-28T14:11:45;11.50;99.90
11599;DHT22;5855;48.840;9.188;2023-12-28T14:14:12;11.50;99.90
11599;DHT22;5855;48.840;9.188;2023-12-28T14:16:39;11.40;99.90
11599;DHT22;5855;48.840;9.188;2023-12-28T14:19:06;11.30;99.90
11599;DHT22;5855;48.840;9.188;2023-12-28T14:21:36;11.30;99.90
11599;DHT22;5855;48.840;9.188;2023-12-28T14:24:04;11.20;99.90
11599;DHT22;5855;48.840;9.188;2023-12-28T14:26:32;11.20;99.90
11599;DHT22;5855;48.840;9.188;2023-12-28T14:29:00;11.10;99.90
11599;DHT22;5855;48.840;9.188;2023-12-28T14:31:29;11.10;99.90
11599;DHT22;5855;48.840;9.188;2023-12-28T14:33:56;11.00;99.90
11599;DHT22;5855;48.840;9.188;2023-12-28T14:36:27;11.00;99.90
11599;DHT22;5855;48.840;9.188;2023-12-28T14:38:59;11.00;99.90
11599;DHT22;5855;48.840;9.188;2023-12-28T14:41:26;11.00;99.90
11599;DHT22;5855;48.840;9.188;2023-12-28T14:43:54;11.00;99.90
11599;DHT22;5855;48.840;9.188;2023-12-28T14:46:22;11.00;99.90
11599;DHT22;5855;48.840;9.188;2023-12-28T14:48:48;11.00;99.90
11599;DHT22;5855;48.840;9.188;2023-12-28T14:51:15;11.00;99.90
11599;DHT22;5855;48.840;9.188;2023-12-28T14:53:42;11.00;99.90
11599;DHT22;5855;48.840;9.188;2023-12-28T14:56:11;11.10;99.90
11599;DHT22;5855;48.840;9.188;2023-12-28T14:58:38;11.20;99.90
11599;DHT22;5855;48.840;9.188;2023-12-28T15:01:05;11.20;99.90
11599;DHT22;5855;48.840;9.188;2023-12-28T15:03:32;11.20;99.90
11599;DHT22;5855;48.840;9.188;2023-12-28T15:05:59;11.20;99.90
11599;DHT22;5855;48.840;9.188;2023-12-28T15:08:26;11.20;99.90
11599;DHT22;5855;48.840;9.188;2023-12-28T15:10:53;11.10;99.90
11599;DHT22;5855;48.840;9.188;2023-12-28T15:13:22;11.10;99.90
11599;DHT22;5855;48.840;9.188;2023-12-28T15:15:49;11.10;99.90
11599;DHT22;5855;48.840;9.188;2023-12-28T15:18:17;11.10;99.90
11599;DHT22;5855;48.840;9.188;2023-12-28T15:20:44;11.00;99.90
11599;DHT22;5855;48.840;9.188;2023-12-28T15:23:11;11.00;99.90
11599;DHT22;5855;48.840;9.188;2023-12-28T15:25:39;11.00;99.90
11599;DHT22;5855;48.840;9.188;2023-12-28T15:28:06;10.90;99.90
11599;DHT22;5855;48.840;9.188;2023-12-28T15:30:34;11.10;99.90
11599;DHT22;5855;48.840;9.188;2023-12-28T15:33:01;11.00;99.90
11599;DHT22;5855;48.840;9.188;2023-12-28T15:35:28;10.90;99.90
11599;DHT22;5855;48.840;9.188;2023-12-28T15:37:55;10.90;99.90
11599;DHT22;5855;48.840;9.188;2023-12-28T15:40:22;11.00;99.90
11599;DHT22;5855;48.840;9.188;2023-12-28T15:42:49;11.00;99.90
11599;DHT22;5855;48.840;9.188;2023-12-28T15:45:16;10.90;99.90
11599;DHT22;5855;48.840;9.188;2023-12-28T15:47:44;11.00;99.90
11599;DHT22;5855;48.840;9.188;2023-12-28T15:50:11;11.00;99.90
11599;DHT22;5855;48.840;9.188;2023-12-28T15:52:39;11.00;99.90
11599;DHT22;5855;48.840;9.188;2023-12-28T15:55:07;11.00;99.90
11599;DHT22;5855;48.840;9.188;2023-12-28T15:57:33;11.00;99.90